Ruby Princess — ZCDY2 — position and weather

sailwx.info

Track history (hours):
 
Tides and Currents Weather Stations Pressure Air Temp Water Temp Dewpoint Dewpoint Depression Visibility Wind Speed Wind Dir Waves Ship Positions

Ruby Princess

Last reported at 2019-Jul-16 09:00 UTC. Time now 2019-Jul-17 00:27 UTC.
Position N 58°18' W 134°42'.

Length 289 m; draft 8.7 m.

Type: Ship. MMSI: 310567000.

Wind from 240 at 2 knots

Barometer 1025.8 mb
Air temperature 12.0 ° C
Visibility: greater than 10.8 NM
Dewpoint 10.2 ° C
Water temperature 11.0 ° C

Date/timePositionNaut miles runAvg speedWind from/ knotsBaromVisibWave heightAir tempDewpointWater temp
2019-Jul-16 09:00N 58°18' W 134°42'58 3.2 240 / 21025.810.8 12.010.211.0
2019-Jul-15 15:00N 57°30' W 133°42'8116.3 360 / 61018.310.8 13.011.112.0
2019-Jul-15 10:00N 56°12' W 134°24'3636.0 170 / 81018.710.8 13.510.911.0
2019-Jul-15 09:00N 55°36' W 134°24'5016.6 230 / 51025.710.8 14.113.913.0
2019-Jul-15 06:00N 54°48' W 134°00'8821.9 020 / 51018.910.8 15.013.314.0
2019-Jul-15 02:00N 53°24' W 133°18'6321.0 220 / 81022.810.8 16.013.517.0
2019-Jul-14 23:00N 52°30' W 132°24'10120.1 220 / 101027.710.8 17.013.715.0
2019-Jul-14 18:00N 51°18' W 130°30'4623.7 220 / 81018.810.8 16.013.515.0
2019-Jul-14 16:02N 50°47' W 129°35'121.1
2019-Jul-14 16:00N 50°47' W 129°34'1121.5
2019-Jul-14 15:28N 50°39' W 129°21'1021.3
2019-Jul-14 15:00N 50°32' W 129°09'1021.2
2019-Jul-14 14:31N 50°25' W 128°57'1631.5
2019-Jul-14 14:00N 50°12' W 128°42'7224.1 180 / 71021.727.0 17.015.417.0
2019-Jul-14 11:00N 49°24' W 127°18'2616.3 240 / 121017.410.8 16.016.015.0
2019-Jul-14 09:23N 49°11' W 126°43'921.7
2019-Jul-14 08:58N 49°06' W 126°32'1021.4
2019-Jul-14 08:30N 49°00' W 126°19'1121.7
2019-Jul-14 08:00N 48°54' W 126°06'1122.5
2019-Jul-14 07:30N 48°47' W 125°52'1122.5
2019-Jul-14 07:00N 48°41' W 125°39'1122.3
2019-Jul-14 06:30N 48°34' W 125°24'1121.9
2019-Jul-14 06:00N 48°32' W 125°08'11663.4
2019-Jul-14 06:00N 48°30' W 125°24'2244.1 230 / 81017.910.8 16.014.414.0
2019-Jul-14 05:30N 48°31' W 124°52'1122.2
2019-Jul-14 05:00N 48°28' W 124°36'1122.2
2019-Jul-14 04:30N 48°24' W 124°20'1122.2
2019-Jul-14 04:00N 48°20' W 124°05'1221.9
2019-Jul-14 03:28N 48°17' W 123°47'1022.5
2019-Jul-14 03:00N 48°15' W 123°32'917.6
2019-Jul-14 02:30N 48°09' W 123°23'918.2
2019-Jul-14 02:00N 48°12' W 123°10'1021.4
2019-Jul-14 01:30N 48°12' W 122°54'1121.0
2019-Jul-14 00:59N 48°06' W 122°39'1021.6
2019-Jul-14 00:31N 47°57' W 122°33'1019.8
2019-Jul-14 00:01N 47°48' W 122°27'1019.2
2019-Jul-13 23:31N 47°39' W 122°27'3 4.8
2019-Jul-13 22:55N 47°38' W 122°23'0 0.0
2019-Jul-13 22:28N 47°38' W 122°23'0 0.0
2019-Jul-13 21:57N 47°38' W 122°23'0 0.0
2019-Jul-13 21:30N 47°38' W 122°23'0 0.0
2019-Jul-13 21:00N 47°38' W 122°23'0 0.0
2019-Jul-13 20:30N 47°38' W 122°23'0 0.0
2019-Jul-13 20:00N 47°38' W 122°23'0 0.0
2019-Jul-13 19:29N 47°38' W 122°23'0 0.0
2019-Jul-13 18:59N 47°38' W 122°23'0 0.0
2019-Jul-13 18:29N 47°38' W 122°23'0 0.0
2019-Jul-13 17:59N 47°38' W 122°23'0 0.0
2019-Jul-13 17:29N 47°38' W 122°23'0 0.0
2019-Jul-13 16:58N 47°38' W 122°23'0 0.0
2019-Jul-13 16:28N 47°38' W 122°23'0 0.0
2019-Jul-13 15:55N 47°38' W 122°23'0 0.0
2019-Jul-13 15:28N 47°38' W 122°23'0 0.0
2019-Jul-13 15:00N 47°38' W 122°23'0 0.0
2019-Jul-13 14:30N 47°38' W 122°23'0 0.0
2019-Jul-13 14:00N 47°38' W 122°23'0 0.0
2019-Jul-13 13:30N 47°38' W 122°23'0 0.0
2019-Jul-13 13:00N 47°38' W 122°23'1 2.4
2019-Jul-13 12:31N 47°37' W 122°24'611.3
2019-Jul-13 12:01N 47°42' W 122°28'815.1
2019-Jul-13 11:31N 47°50' W 122°28'815.9
2019-Jul-13 10:59N 47°57' W 122°34'916.9
2019-Jul-13 10:28N 48°05' W 122°40'3 5.4
2019-Jul-13 10:00N 48°06' W 122°36'10398.4 220 / 31015.910.8 13.011.310.0
2019-Jul-13 09:58N 48°11' W 122°49'918.4
2019-Jul-13 09:29N 48°12' W 123°02'918.3
2019-Jul-13 09:00N 48°11' W 123°15'714.6
2019-Jul-13 08:30N 48°11' W 123°26'713.7
2019-Jul-13 08:00N 48°18' W 123°28'713.1
2019-Jul-13 07:30N 48°24' W 123°24'1 2.6
2019-Jul-13 06:59N 48°25' W 123°23'0 0.0
2019-Jul-13 06:29N 48°25' W 123°23'0 0.0
2019-Jul-13 05:59N 48°25' W 123°23'0 0.0
2019-Jul-13 05:28N 48°25' W 123°23'0 0.0
2019-Jul-13 04:58N 48°25' W 123°23'0 0.0
2019-Jul-13 04:28N 48°25' W 123°23'0 0.0
2019-Jul-13 04:01N 48°25' W 123°23'0 0.0
2019-Jul-13 03:31N 48°25' W 123°23'0 0.0
2019-Jul-13 03:00N 48°25' W 123°23'0 0.0
2019-Jul-13 02:30N 48°25' W 123°23'0 0.0
2019-Jul-13 02:00N 48°25' W 123°23'0 0.4
2019-Jul-13 01:30N 48°25' W 123°24'4 8.9
2019-Jul-13 01:00N 48°21' W 123°24'917.8
2019-Jul-13 00:30N 48°14' W 123°33'1121.4
2019-Jul-13 00:00N 48°14' W 123°49'1121.5
2019-Jul-12 23:30N 48°16' W 124°04'1122.1
2019-Jul-12 23:00N 48°21' W 124°19'3202.2
2019-Jul-12 23:00N 48°18' W 124°18'1326.2 320 / 221026.0 5.4 16.014.415.0
2019-Jul-12 22:30N 48°26' W 124°33'1019.9
2019-Jul-12 22:00N 48°29' W 124°48'1019.2
2019-Jul-12 21:30N 48°29' W 125°02'1019.3
2019-Jul-12 21:00N 48°31' W 125°16'1020.4
2019-Jul-12 20:31N 48°36' W 125°29'1122.4
2019-Jul-12 20:00N 48°42' W 125°44'1122.4
2019-Jul-12 19:30N 48°48' W 125°59'1122.5
2019-Jul-12 19:01N 48°54' W 126°13'1122.8
2019-Jul-12 18:30N 49°01' W 126°27'1222.6
2019-Jul-12 18:00N 49°08' W 126°40'234223.4
2019-Jul-12 18:00N 48°54' W 126°12'3470.2 060 / 121018.910.8 16.013.513.0
2019-Jul-12 17:30N 49°15' W 126°53'6418.3
2019-Jul-12 14:00N 49°54' W 128°12'2246.9 090 / 161020.510.8 15.014.216.0
2019-Jul-12 13:31N 50°13' W 128°31'1821.5
2019-Jul-12 12:42N 50°27' W 128°47'422.0
2019-Jul-12 12:30N 50°30' W 128°51'1121.7
2019-Jul-12 12:00N 50°39' W 129°02'1020.6
2019-Jul-12 11:30N 50°47' W 129°12'1121.1
2019-Jul-12 11:00N 50°57' W 129°18'1121.6
2019-Jul-12 10:30N 51°06' W 129°25'1122.0
2019-Jul-12 10:00N 51°17' W 129°32'241532.1
2019-Jul-12 10:00N 50°54' W 129°18'3572.0 090 / 241016.5 5.4 15.014.214.0
2019-Jul-12 09:30N 51°27' W 129°39'1121.9
2019-Jul-12 09:00N 51°37' W 129°46'1122.5
2019-Jul-12 08:30N 51°47' W 129°53'2422.3
2019-Jul-12 07:26N 52°09' W 130°08'3 7.0
2019-Jul-12 07:00N 52°12' W 130°06'6225.3 110 / 211018.5 5.4 15.013.315.0
2019-Jul-12 04:33N 53°08' W 130°49'121.9
2019-Jul-12 04:30N 53°09' W 130°50'1631.9
2019-Jul-12 04:00N 53°24' W 131°00'2 6.0 120 / 241016.9 5.4 15.013.315.0
2019-Jul-12 03:38N 53°26' W 131°01'321.2
2019-Jul-12 03:30N 53°29' W 131°01'1021.1
2019-Jul-12 03:00N 53°39' W 131°01'1121.2
2019-Jul-12 02:29N 53°50' W 131°02'2121.8
2019-Jul-12 01:31N 54°12' W 131°03'1121.9
2019-Jul-12 01:01N 54°22' W 131°10'1121.8
2019-Jul-12 00:31N 54°31' W 131°20'87 6.4
2019-Jul-11 11:00N 55°48' W 132°30'5213.0 120 / 201015.6 5.4 16.013.515.0
2019-Jul-11 07:00N 56°00' W 134°00'7618.9 260 / 81012.7 5.4 13.510.911.0
2019-Jul-11 03:00N 57°12' W 134°42'7121.0 090 / 81013.210.8 17.514.314.0
2019-Jul-10 23:37N 58°16' W 135°39'220.0
2019-Jul-10 23:31N 58°17' W 135°42'918.4
2019-Jul-10 23:00N 58°22' W 135°57'171182.1
2019-Jul-10 23:00N 58°12' W 135°30'2244.9 320 / 221011.910.8 15.512.114.0
2019-Jul-10 22:31N 58°27' W 136°00'611.1
2019-Jul-10 22:00N 58°32' W 136°03'816.6
2019-Jul-10 21:30N 58°40' W 136°09'4 0.6
2019-Jul-10 15:16N 58°43' W 136°14'519.2
2019-Jul-10 15:00N 58°39' W 136°07'815.8
2019-Jul-10 14:30N 58°31' W 136°04'611.9
2019-Jul-10 14:00N 58°26' W 135°58'610.9
2019-Jul-10 13:30N 58°21' W 135°56'611.5
2019-Jul-10 13:00N 58°18' W 135°46'611.8
2019-Jul-10 12:29N 58°16' W 135°36'612.0
2019-Jul-10 11:59N 58°14' W 135°25'30 6.0
2019-Jul-10 07:00N 58°42' W 135°06'140 3.2 130 / 101014.2 5.4 17.014.616.0
2019-Jul-08 11:00N 56°24' W 134°24'13521.1 170 / 141010.9 12.012.010.0
2019-Jul-08 04:35N 54°11' W 133°46'14421.8
2019-Jul-07 22:00N 52°06' W 131°48'6821.5 270 / 171016.8 0.1 13.512.713.0
2019-Jul-07 18:51N 51°18' W 130°31'1721.9
2019-Jul-07 18:05N 51°07' W 130°11'10105.6
2019-Jul-07 18:00N 51°12' W 130°24'2639.6 270 / 201016.610.8 13.511.814.0
2019-Jul-07 17:21N 50°57' W 129°51'2621.7
2019-Jul-07 16:08N 50°39' W 129°21'1021.4
2019-Jul-07 15:40N 50°32' W 129°09'721.7
2019-Jul-07 15:22N 50°27' W 129°02'821.5
2019-Jul-07 15:00N 50°22' W 128°53'9719.4
2019-Jul-07 10:00N 49°18' W 127°00'1889.3 230 / 151017.410.8 14.512.815.0
2019-Jul-07 09:48N 49°08' W 126°38'622.0
2019-Jul-07 09:30N 49°05' W 126°29'1122.1
2019-Jul-07 09:00N 48°59' W 126°16'1121.8
2019-Jul-07 08:31N 48°52' W 126°02'1121.8
2019-Jul-07 08:01N 48°46' W 125°49'1122.1
2019-Jul-07 07:31N 48°39' W 125°35'1122.4
2019-Jul-07 07:01N 48°34' W 125°21'1121.8
2019-Jul-07 06:31N 48°32' W 125°05'1223.4
2019-Jul-07 06:00N 48°31' W 124°47'1123.0
2019-Jul-07 05:31N 48°27' W 124°31'1122.3
2019-Jul-07 05:00N 48°23' W 124°15'1121.6
2019-Jul-07 04:30N 48°19' W 124°00'1121.0
2019-Jul-07 04:00N 48°16' W 123°44'1020.0
2019-Jul-07 03:31N 48°15' W 123°30'815.5
2019-Jul-07 03:00N 48°09' W 123°22'1918.8
2019-Jul-07 02:00N 48°12' W 122°54'2409.4 240 / 251021.810.8 14.011.411.0
2019-Jul-07 01:59N 48°12' W 122°57'1217.0
2019-Jul-07 01:18N 48°08' W 122°41'516.4
2019-Jul-07 01:00N 48°03' W 122°38'918.1
2019-Jul-07 00:31N 47°56' W 122°30'1020.7
2019-Jul-07 00:01N 47°46' W 122°26'917.1
2019-Jul-06 23:30N 47°38' W 122°26'2 4.6
2019-Jul-06 23:00N 47°38' W 122°23'0 0.0
2019-Jul-06 22:28N 47°38' W 122°23'0 0.0
2019-Jul-06 22:01N 47°38' W 122°23'0 0.0
2019-Jul-06 21:30N 47°38' W 122°23'0 0.0
2019-Jul-06 21:00N 47°38' W 122°23'0 0.0
2019-Jul-06 20:30N 47°38' W 122°23'0 0.0
2019-Jul-06 20:00N 47°38' W 122°23'0 0.0
2019-Jul-06 19:29N 47°38' W 122°23'0 0.0
2019-Jul-06 18:59N 47°38' W 122°23'0 0.0
2019-Jul-06 18:29N 47°38' W 122°23'0 0.0
2019-Jul-06 17:59N 47°38' W 122°23'0 0.0
2019-Jul-06 17:28N 47°38' W 122°23'0 0.0
2019-Jul-06 16:58N 47°38' W 122°23'0 0.0
2019-Jul-06 16:28N 47°38' W 122°23'0 0.0
2019-Jul-06 15:58N 47°38' W 122°23'0 0.0
2019-Jul-06 15:28N 47°38' W 122°23'0 0.0
2019-Jul-06 15:00N 47°38' W 122°23'0 0.0
2019-Jul-06 14:30N 47°38' W 122°23'0 0.0
2019-Jul-06 14:00N 47°38' W 122°23'0 0.0
2019-Jul-06 13:30N 47°38' W 122°23'0 0.0
2019-Jul-06 13:00N 47°38' W 122°23'2 3.1
2019-Jul-06 12:30N 47°37' W 122°25'611.6
2019-Jul-06 12:00N 47°43' W 122°28'816.2
2019-Jul-06 11:30N 47°51' W 122°28'917.0
2019-Jul-06 11:00N 47°58' W 122°35'917.6
2019-Jul-06 10:30N 48°06' W 122°40'918.5
2019-Jul-06 10:00N 48°11' W 122°52'918.5
2019-Jul-06 09:29N 48°12' W 123°06'918.3
2019-Jul-06 09:01N 48°11' W 123°19'  
Track history (hours):
 
Tides and Currents Weather Stations Pressure Air Temp Water Temp Dewpoint Dewpoint Depression Visibility Wind Speed Wind Dir Waves Ship Positions

Ruby Princess

Last reported at 2019-Jul-16 09:00 UTC. Time now 2019-Jul-17 00:27 UTC.
Position N 58°18' W 134°42'.

Length 289 m; draft 8.7 m.

Type: Ship. MMSI: 310567000.

Wind from 240 at 2 knots

Barometer 1025.8 mb
Air temperature 12.0 ° C
Visibility: greater than 10.8 NM
Dewpoint 10.2 ° C
Water temperature 11.0 ° C

Date/timePositionNaut miles runAvg speedWind from/ knotsBaromVisibWave heightAir tempDewpointWater temp
2019-Jul-16 09:00N 58°18' W 134°42'58 3.2 240 / 21025.810.8 12.010.211.0
2019-Jul-15 15:00N 57°30' W 133°42'8116.3 360 / 61018.310.8 13.011.112.0
2019-Jul-15 10:00N 56°12' W 134°24'3636.0 170 / 81018.710.8 13.510.911.0
2019-Jul-15 09:00N 55°36' W 134°24'5016.6 230 / 51025.710.8 14.113.913.0
2019-Jul-15 06:00N 54°48' W 134°00'8821.9 020 / 51018.910.8 15.013.314.0
2019-Jul-15 02:00N 53°24' W 133°18'6321.0 220 / 81022.810.8 16.013.517.0
2019-Jul-14 23:00N 52°30' W 132°24'10120.1 220 / 101027.710.8 17.013.715.0
2019-Jul-14 18:00N 51°18' W 130°30'4623.7 220 / 81018.810.8 16.013.515.0
2019-Jul-14 16:02N 50°47' W 129°35'121.1
2019-Jul-14 16:00N 50°47' W 129°34'1121.5
2019-Jul-14 15:28N 50°39' W 129°21'1021.3
2019-Jul-14 15:00N 50°32' W 129°09'1021.2
2019-Jul-14 14:31N 50°25' W 128°57'1631.5
2019-Jul-14 14:00N 50°12' W 128°42'7224.1 180 / 71021.727.0 17.015.417.0
2019-Jul-14 11:00N 49°24' W 127°18'2616.3 240 / 121017.410.8 16.016.015.0
2019-Jul-14 09:23N 49°11' W 126°43'921.7
2019-Jul-14 08:58N 49°06' W 126°32'1021.4
2019-Jul-14 08:30N 49°00' W 126°19'1121.7
2019-Jul-14 08:00N 48°54' W 126°06'1122.5
2019-Jul-14 07:30N 48°47' W 125°52'1122.5
2019-Jul-14 07:00N 48°41' W 125°39'1122.3
2019-Jul-14 06:30N 48°34' W 125°24'1121.9
2019-Jul-14 06:00N 48°32' W 125°08'11663.4
2019-Jul-14 06:00N 48°30' W 125°24'2244.1 230 / 81017.910.8 16.014.414.0
2019-Jul-14 05:30N 48°31' W 124°52'1122.2
2019-Jul-14 05:00N 48°28' W 124°36'1122.2
2019-Jul-14 04:30N 48°24' W 124°20'1122.2
2019-Jul-14 04:00N 48°20' W 124°05'1221.9
2019-Jul-14 03:28N 48°17' W 123°47'1022.5
2019-Jul-14 03:00N 48°15' W 123°32'917.6
2019-Jul-14 02:30N 48°09' W 123°23'918.2
2019-Jul-14 02:00N 48°12' W 123°10'1021.4
2019-Jul-14 01:30N 48°12' W 122°54'1121.0
2019-Jul-14 00:59N 48°06' W 122°39'1021.6
2019-Jul-14 00:31N 47°57' W 122°33'1019.8
2019-Jul-14 00:01N 47°48' W 122°27'1019.2
2019-Jul-13 23:31N 47°39' W 122°27'3 4.8
2019-Jul-13 22:55N 47°38' W 122°23'0 0.0
2019-Jul-13 22:28N 47°38' W 122°23'0 0.0
2019-Jul-13 21:57N 47°38' W 122°23'0 0.0
2019-Jul-13 21:30N 47°38' W 122°23'0 0.0
2019-Jul-13 21:00N 47°38' W 122°23'0 0.0
2019-Jul-13 20:30N 47°38' W 122°23'0 0.0
2019-Jul-13 20:00N 47°38' W 122°23'0 0.0
2019-Jul-13 19:29N 47°38' W 122°23'0 0.0
2019-Jul-13 18:59N 47°38' W 122°23'0 0.0
2019-Jul-13 18:29N 47°38' W 122°23'0 0.0
2019-Jul-13 17:59N 47°38' W 122°23'0 0.0
2019-Jul-13 17:29N 47°38' W 122°23'0 0.0
2019-Jul-13 16:58N 47°38' W 122°23'0 0.0
2019-Jul-13 16:28N 47°38' W 122°23'0 0.0
2019-Jul-13 15:55N 47°38' W 122°23'0 0.0
2019-Jul-13 15:28N 47°38' W 122°23'0 0.0
2019-Jul-13 15:00N 47°38' W 122°23'0 0.0
2019-Jul-13 14:30N 47°38' W 122°23'0 0.0
2019-Jul-13 14:00N 47°38' W 122°23'0 0.0
2019-Jul-13 13:30N 47°38' W 122°23'0 0.0
2019-Jul-13 13:00N 47°38' W 122°23'1 2.4
2019-Jul-13 12:31N 47°37' W 122°24'611.3
2019-Jul-13 12:01N 47°42' W 122°28'815.1
2019-Jul-13 11:31N 47°50' W 122°28'815.9
2019-Jul-13 10:59N 47°57' W 122°34'916.9
2019-Jul-13 10:28N 48°05' W 122°40'3 5.4
2019-Jul-13 10:00N 48°06' W 122°36'10398.4 220 / 31015.910.8 13.011.310.0
2019-Jul-13 09:58N 48°11' W 122°49'918.4
2019-Jul-13 09:29N 48°12' W 123°02'918.3
2019-Jul-13 09:00N 48°11' W 123°15'714.6
2019-Jul-13 08:30N 48°11' W 123°26'713.7
2019-Jul-13 08:00N 48°18' W 123°28'713.1
2019-Jul-13 07:30N 48°24' W 123°24'1 2.6
2019-Jul-13 06:59N 48°25' W 123°23'0 0.0
2019-Jul-13 06:29N 48°25' W 123°23'0 0.0
2019-Jul-13 05:59N 48°25' W 123°23'0 0.0
2019-Jul-13 05:28N 48°25' W 123°23'0 0.0
2019-Jul-13 04:58N 48°25' W 123°23'0 0.0
2019-Jul-13 04:28N 48°25' W 123°23'0 0.0
2019-Jul-13 04:01N 48°25' W 123°23'0 0.0
2019-Jul-13 03:31N 48°25' W 123°23'0 0.0
2019-Jul-13 03:00N 48°25' W 123°23'0 0.0
2019-Jul-13 02:30N 48°25' W 123°23'0 0.0
2019-Jul-13 02:00N 48°25' W 123°23'0 0.4
2019-Jul-13 01:30N 48°25' W 123°24'4 8.9
2019-Jul-13 01:00N 48°21' W 123°24'917.8
2019-Jul-13 00:30N 48°14' W 123°33'1121.4
2019-Jul-13 00:00N 48°14' W 123°49'1121.5
2019-Jul-12 23:30N 48°16' W 124°04'1122.1
2019-Jul-12 23:00N 48°21' W 124°19'3202.2
2019-Jul-12 23:00N 48°18' W 124°18'1326.2 320 / 221026.0 5.4 16.014.415.0
2019-Jul-12 22:30N 48°26' W 124°33'1019.9
2019-Jul-12 22:00N 48°29' W 124°48'1019.2
2019-Jul-12 21:30N 48°29' W 125°02'1019.3
2019-Jul-12 21:00N 48°31' W 125°16'1020.4
2019-Jul-12 20:31N 48°36' W 125°29'1122.4
2019-Jul-12 20:00N 48°42' W 125°44'1122.4
2019-Jul-12 19:30N 48°48' W 125°59'1122.5
2019-Jul-12 19:01N 48°54' W 126°13'1122.8
2019-Jul-12 18:30N 49°01' W 126°27'1222.6
2019-Jul-12 18:00N 49°08' W 126°40'234223.4
2019-Jul-12 18:00N 48°54' W 126°12'3470.2 060 / 121018.910.8 16.013.513.0
2019-Jul-12 17:30N 49°15' W 126°53'6418.3
2019-Jul-12 14:00N 49°54' W 128°12'2246.9 090 / 161020.510.8 15.014.216.0
2019-Jul-12 13:31N 50°13' W 128°31'1821.5
2019-Jul-12 12:42N 50°27' W 128°47'422.0
2019-Jul-12 12:30N 50°30' W 128°51'1121.7
2019-Jul-12 12:00N 50°39' W 129°02'1020.6
2019-Jul-12 11:30N 50°47' W 129°12'1121.1
2019-Jul-12 11:00N 50°57' W 129°18'1121.6
2019-Jul-12 10:30N 51°06' W 129°25'1122.0
2019-Jul-12 10:00N 51°17' W 129°32'241532.1
2019-Jul-12 10:00N 50°54' W 129°18'3572.0 090 / 241016.5 5.4 15.014.214.0
2019-Jul-12 09:30N 51°27' W 129°39'1121.9
2019-Jul-12 09:00N 51°37' W 129°46'1122.5
2019-Jul-12 08:30N 51°47' W 129°53'2422.3
2019-Jul-12 07:26N 52°09' W 130°08'3 7.0
2019-Jul-12 07:00N 52°12' W 130°06'6225.3 110 / 211018.5 5.4 15.013.315.0
2019-Jul-12 04:33N 53°08' W 130°49'121.9
2019-Jul-12 04:30N 53°09' W 130°50'1631.9
2019-Jul-12 04:00N 53°24' W 131°00'2 6.0 120 / 241016.9 5.4 15.013.315.0
2019-Jul-12 03:38N 53°26' W 131°01'321.2
2019-Jul-12 03:30N 53°29' W 131°01'1021.1
2019-Jul-12 03:00N 53°39' W 131°01'1121.2
2019-Jul-12 02:29N 53°50' W 131°02'2121.8
2019-Jul-12 01:31N 54°12' W 131°03'1121.9
2019-Jul-12 01:01N 54°22' W 131°10'1121.8
2019-Jul-12 00:31N 54°31' W 131°20'87 6.4
2019-Jul-11 11:00N 55°48' W 132°30'5213.0 120 / 201015.6 5.4 16.013.515.0
2019-Jul-11 07:00N 56°00' W 134°00'7618.9 260 / 81012.7 5.4 13.510.911.0
2019-Jul-11 03:00N 57°12' W 134°42'7121.0 090 / 81013.210.8 17.514.314.0
2019-Jul-10 23:37N 58°16' W 135°39'220.0
2019-Jul-10 23:31N 58°17' W 135°42'918.4
2019-Jul-10 23:00N 58°22' W 135°57'171182.1
2019-Jul-10 23:00N 58°12' W 135°30'2244.9 320 / 221011.910.8 15.512.114.0
2019-Jul-10 22:31N 58°27' W 136°00'611.1
2019-Jul-10 22:00N 58°32' W 136°03'816.6
2019-Jul-10 21:30N 58°40' W 136°09'4 0.6
2019-Jul-10 15:16N 58°43' W 136°14'519.2
2019-Jul-10 15:00N 58°39' W 136°07'815.8
2019-Jul-10 14:30N 58°31' W 136°04'611.9
2019-Jul-10 14:00N 58°26' W 135°58'610.9
2019-Jul-10 13:30N 58°21' W 135°56'611.5
2019-Jul-10 13:00N 58°18' W 135°46'611.8
2019-Jul-10 12:29N 58°16' W 135°36'612.0
2019-Jul-10 11:59N 58°14' W 135°25'30 6.0
2019-Jul-10 07:00N 58°42' W 135°06'140 3.2 130 / 101014.2 5.4 17.014.616.0
2019-Jul-08 11:00N 56°24' W 134°24'13521.1 170 / 141010.9 12.012.010.0
2019-Jul-08 04:35N 54°11' W 133°46'14421.8
2019-Jul-07 22:00N 52°06' W 131°48'6821.5 270 / 171016.8 0.1 13.512.713.0
2019-Jul-07 18:51N 51°18' W 130°31'1721.9
2019-Jul-07 18:05N 51°07' W 130°11'10105.6
2019-Jul-07 18:00N 51°12' W 130°24'2639.6 270 / 201016.610.8 13.511.814.0
2019-Jul-07 17:21N 50°57' W 129°51'2621.7
2019-Jul-07 16:08N 50°39' W 129°21'1021.4
2019-Jul-07 15:40N 50°32' W 129°09'721.7
2019-Jul-07 15:22N 50°27' W 129°02'821.5
2019-Jul-07 15:00N 50°22' W 128°53'9719.4
2019-Jul-07 10:00N 49°18' W 127°00'1889.3 230 / 151017.410.8 14.512.815.0
2019-Jul-07 09:48N 49°08' W 126°38'622.0
2019-Jul-07 09:30N 49°05' W 126°29'1122.1
2019-Jul-07 09:00N 48°59' W 126°16'1121.8
2019-Jul-07 08:31N 48°52' W 126°02'1121.8
2019-Jul-07 08:01N 48°46' W 125°49'1122.1
2019-Jul-07 07:31N 48°39' W 125°35'1122.4
2019-Jul-07 07:01N 48°34' W 125°21'1121.8
2019-Jul-07 06:31N 48°32' W 125°05'1223.4
2019-Jul-07 06:00N 48°31' W 124°47'1123.0
2019-Jul-07 05:31N 48°27' W 124°31'1122.3
2019-Jul-07 05:00N 48°23' W 124°15'1121.6
2019-Jul-07 04:30N 48°19' W 124°00'1121.0
2019-Jul-07 04:00N 48°16' W 123°44'1020.0
2019-Jul-07 03:31N 48°15' W 123°30'815.5
2019-Jul-07 03:00N 48°09' W 123°22'1918.8
2019-Jul-07 02:00N 48°12' W 122°54'2409.4 240 / 251021.810.8 14.011.411.0
2019-Jul-07 01:59N 48°12' W 122°57'1217.0
2019-Jul-07 01:18N 48°08' W 122°41'516.4
2019-Jul-07 01:00N 48°03' W 122°38'918.1
2019-Jul-07 00:31N 47°56' W 122°30'1020.7
2019-Jul-07 00:01N 47°46' W 122°26'917.1
2019-Jul-06 23:30N 47°38' W 122°26'2 4.6
2019-Jul-06 23:00N 47°38' W 122°23'0 0.0
2019-Jul-06 22:28N 47°38' W 122°23'0 0.0
2019-Jul-06 22:01N 47°38' W 122°23'0 0.0
2019-Jul-06 21:30N 47°38' W 122°23'0 0.0
2019-Jul-06 21:00N 47°38' W 122°23'0 0.0
2019-Jul-06 20:30N 47°38' W 122°23'0 0.0
2019-Jul-06 20:00N 47°38' W 122°23'0 0.0
2019-Jul-06 19:29N 47°38' W 122°23'0 0.0
2019-Jul-06 18:59N 47°38' W 122°23'0 0.0
2019-Jul-06 18:29N 47°38' W 122°23'0 0.0
2019-Jul-06 17:59N 47°38' W 122°23'0 0.0
2019-Jul-06 17:28N 47°38' W 122°23'0 0.0
2019-Jul-06 16:58N 47°38' W 122°23'0 0.0
2019-Jul-06 16:28N 47°38' W 122°23'0 0.0
2019-Jul-06 15:58N 47°38' W 122°23'0 0.0
2019-Jul-06 15:28N 47°38' W 122°23'0 0.0
2019-Jul-06 15:00N 47°38' W 122°23'0 0.0
2019-Jul-06 14:30N 47°38' W 122°23'0 0.0
2019-Jul-06 14:00N 47°38' W 122°23'0 0.0
2019-Jul-06 13:30N 47°38' W 122°23'0 0.0
2019-Jul-06 13:00N 47°38' W 122°23'2 3.1
2019-Jul-06 12:30N 47°37' W 122°25'611.6
2019-Jul-06 12:00N 47°43' W 122°28'816.2
2019-Jul-06 11:30N 47°51' W 122°28'917.0
2019-Jul-06 11:00N 47°58' W 122°35'917.6
2019-Jul-06 10:30N 48°06' W 122°40'918.5
2019-Jul-06 10:00N 48°11' W 122°52'918.5
2019-Jul-06 09:29N 48°12' W 123°06'918.3
2019-Jul-06 09:01N 48°11' W 123°19'  

Dump ship's entire track history